Latest Coastal Weather Observations for Walpole North

IDW60701

Issued at 6:45 pm WST Wednesday 1 October 2014 (issued every 10 minutes, with the page automatically refreshed every 10 minutes)

About coastal observations | Map of coastal stations | Coastal observations for WA | Marine services | Other Formats
Station Details ID: 009998 Name: NORTH WALPOLE Lat: -34.95 Lon: 116.72 Height: 73.0 m
Data from the previous 72 hours. | See also: Recent months at Walpole North
Date/Time
WST
Temp

°C
Wind Pressure Rain
since 9am
mm
Weather Cloud Vis
km
Sea
Height
m
Swell
Dir
 
Speed
knots
Gust
knots
hPa Trend Height
m
Period
s
Dir
01/06:30pm 18.7 E 8 14 1017.4 - 0.2 - - - - - - -
01/06:00pm 19.5 ENE 7 13 1017.5 - 0.2 - - - - - - -
01/05:30pm 20.4 E 7 11 1017.5 - 0.2 - - - - - - -
01/05:00pm 21.3 E 9 16 1017.3 - 0.2 - - - - - - -
01/04:30pm 22.7 E 7 11 1017.1 - 0.2 - - - - - - -
01/04:00pm 22.6 ESE 8 14 1016.9 - 0.2 - - - - - - -
01/03:30pm 22.8 ESE 11 14 1017.1 - 0.2 - - - - - - -
01/03:00pm 22.9 SE 11 14 1017.3 - 0.2 - - - - - - -
01/02:30pm 26.1 NE 7 13 1017.7 - 0.2 - - - - - - -
01/02:00pm 25.1 E 7 11 1017.9 - 0.2 - - - - - - -
01/01:30pm 24.7 E 8 11 1018.4 - 0.2 - - - - - - -
01/01:00pm 24.2 ENE 7 12 1019.0 - 0.2 - - - - - - -
01/12:30pm 23.6 NE 7 10 1019.6 - 0.2 - - - - - - -
01/12:00pm 22.7 ENE 9 15 1020.3 - 0.0 - - - - - - -
01/11:30am 21.7 ENE 9 13 1020.7 - 0.0 - - - - - - -
01/11:00am 20.8 ENE 9 13 1021.2 - 0.0 - - - - - - -
01/10:30am 19.3 ENE 10 16 1021.8 - 0.0 - - - - - - -
01/10:00am 18.1 ENE 9 13 1022.5 - 0.0 - - - - - - -
01/09:30am 16.9 ENE 10 16 1022.9 - 0.0 - - - - - - -
01/09:00am 15.6 ENE 10 17 1023.0 - 0.0 - - - - - - -
01/08:30am 14.6 ENE 10 16 1022.9 - 0.0 - - - - - - -
01/08:00am 13.3 ENE 9 18 1023.7 - 0.0 - - - - - - -
01/07:30am 12.4 ENE 7 10 1023.6 - 0.0 - - - - - - -
01/07:00am 11.3 ENE 6 10 1023.4 - 0.0 - - - - - - -
01/06:30am 10.3 ENE 7 9 1023.5 - 0.0 - - - - - - -
01/06:00am 9.8 ENE 6 9 1023.6 - 0.0 - - - - - - -
01/05:30am 9.9 ENE 7 9 1023.6 - 0.0 - - - - - - -
01/05:00am 9.9 ENE 6 9 1023.6 - 0.0 - - - - - - -
01/04:30am 9.9 ENE 5 7 1023.6 - 0.0 - - - - - - -
01/04:00am 9.8 NE 6 9 1023.7 - 0.0 - - - - - - -
01/03:30am 10.0 ENE 6 9 1023.9 - 0.0 - - - - - - -
01/03:00am 10.1 ENE 7 9 1023.7 - 0.0 - - - - - - -
01/02:30am 10.1 NE 6 8 1023.8 - 0.0 - - - - - - -
01/02:00am 10.0 ENE 5 7 1024.0 - 0.0 - - - - - - -
01/01:30am 10.1 E 4 6 1024.1 - 0.0 - - - - - - -
01/01:00am 9.8 E 4 6 1024.3 - 0.0 - - - - - - -
01/12:30am 10.5 ENE 5 8 1024.4 - 0.0 - - - - - - -
01/12:00am 10.8 ENE 4 7 1024.5 - 0.0 - - - - - - -
 
Date/Time
WST
Temp

°C
Wind Pressure Rain
since 9am
mm
Weather Cloud Vis
km
Sea
Height
m
Swell
Dir
 
Speed
knots
Gust
knots
hPa Trend Height
m
Period
s
Dir
30/11:30pm 11.0 E 4 5 1024.6 - 0.0 - - - - - - -
30/11:00pm 10.9 E 3 5 1024.6 - 0.0 - - - - - - -
30/10:30pm 11.1 E 5 6 1024.6 - 0.0 - - - - - - -
30/10:00pm 10.4 CALM 0 0 1024.6 - 0.0 - - - - - - -
30/09:30pm 10.6 E 5 6 1024.6 - 0.0 - - - - - - -
30/09:00pm 11.4 E 4 6 1024.7 - 0.0 - - - - - - -
30/08:30pm 11.8 E 3 5 1024.6 - 0.0 - - - - - - -
30/08:00pm 12.0 E 5 6 1024.3 - 0.0 - - - - - - -
30/07:30pm 12.1 E 5 6 1024.1 - 0.0 - - - - - - -
30/07:00pm 12.6 ESE 5 7 1023.7 - 0.0 - - - - - - -
30/06:30pm 13.3 ESE 6 7 1023.6 - 0.0 - - - - - - -
30/06:00pm 13.5 SE 7 10 1023.5 - 0.0 - - - - - - -
30/05:30pm 14.7 SE 8 11 1023.4 - 0.0 - - - - - - -
30/05:00pm 15.4 SSE 7 10 1023.3 - 0.0 - - - - - - -
30/04:30pm 15.9 SSE 6 10 1023.1 - 0.0 - - - - - - -
30/04:00pm 15.9 SSE 7 12 1023.0 - 0.0 - - - - - - -
30/03:30pm 16.9 S 5 10 1023.0 - 0.0 - - - - - - -
30/03:00pm 16.8 S 6 9 1022.8 - 0.0 - - - - - - -
30/02:30pm 17.1 S 5 8 1022.9 - 0.0 - - - - - - -
30/02:00pm 17.4 S 5 9 1023.1 - 0.0 - - - - - - -
30/01:30pm 17.6 S 6 11 1023.1 - 0.0 - - - - - - -
30/01:00pm 17.4 SSE 6 9 1023.3 - 0.0 - - - - - - -
30/12:30pm 17.2 SSW 4 6 1023.6 - 0.0 - - - - - - -
30/12:00pm 17.0 SE 5 8 1023.8 - 0.0 - - - - - - -
30/11:30am 16.4 S 3 8 1023.7 - 0.0 - - - - - - -
30/11:00am 16.0 S 5 8 1023.8 - 0.0 - - - - - - -
30/10:30am 16.4 ESE 3 7 1024.0 - 0.0 - - - - - - -
30/10:00am 15.5 SSW 4 7 1024.0 - 0.0 - - - - - - -
30/09:30am 15.2 CALM 0 4 1023.8 - 0.0 - - - - - - -
30/09:00am 15.0 SW 2 6 1023.5 - - - - - - - - -
30/08:30am 14.0 CALM 0 0 1023.3 - - - - - - - - -
30/08:00am 13.4 CALM 0 1 1023.1 - - - - - - - - -
30/07:30am 12.6 CALM 0 0 1022.7 - - - - - - - - -
30/07:00am 12.5 CALM 0 0 1022.4 - 2.0 - - - - - - -
30/06:30am 11.9 CALM 0 0 1022.1 - 2.0 - - - - - - -
30/06:00am 11.8 CALM 0 0 1021.6 - 2.0 - - - - - - -
30/05:30am 11.6 CALM 0 4 1021.3 - 2.0 - - - - - - -
30/05:00am 12.0 SW 5 7 1021.0 - 2.0 - - - - - - -
30/04:30am 11.4 CALM 0 0 1020.7 - 2.0 - - - - - - -
30/04:00am 11.3 CALM 0 0 1020.4 - 2.0 - - - - - - -
30/03:30am 11.4 WSW 2 5 1020.3 - 1.8 - - - - - - -
30/03:00am 11.2 W 3 6 1020.0 - 1.8 - - - - - - -
30/02:30am 12.0 W 5 8 1020.0 - 1.8 - - - - - - -
30/02:00am 12.1 SW 5 7 1020.1 - 1.8 - - - - - - -
30/01:30am 12.0 WSW 7 14 1020.1 - 1.8 - - - - - - -
30/01:00am 12.0 W 5 11 1020.0 - 1.8 - - - - - - -
30/12:30am 11.6 WSW 4 8 1019.5 - 1.6 - - - - - - -
30/12:00am 12.0 W 4 6 1019.4 - 1.6 - - - - - - -
 
Date/Time
WST
Temp

°C
Wind Pressure Rain
since 9am
mm
Weather Cloud Vis
km
Sea
Height
m
Swell
Dir
 
Speed
knots
Gust
knots
hPa Trend Height
m
Period
s
Dir
29/11:30pm 12.2 WNW 7 9 1019.5 - 1.6 - - - - - - -
29/11:00pm 12.2 W 4 7 1019.4 - 1.6 - - - - - - -
29/10:30pm 12.0 WNW 4 6 1019.4 - 1.4 - - - - - - -
29/10:00pm 12.1 WNW 5 8 1019.3 - 1.4 - - - - - - -
29/09:30pm 12.3 NW 8 12 1019.0 - 1.4 - - - - - - -
29/09:00pm 12.5 NW 7 11 1019.0 - 1.4 - - - - - - -
29/08:30pm 12.5 NW 6 9 1019.0 - 1.4 - - - - - - -
29/08:00pm 12.4 WNW 4 6 1018.7 - 1.4 - - - - - - -
29/07:30pm 12.7 W 10 18 1018.5 - 1.4 - - - - - - -
29/07:00pm 12.8 W 8 13 1018.4 - 1.0 - - - - - - -
29/06:30pm 13.3 W 5 7 1017.7 - 0.4 - - - - - - -
29/06:00pm 13.6 W 10 16 1017.2 - 0.2 Recent precip. - - - - - -
29/05:30pm 14.3 W 9 14 1016.4 - 0.0 - - - - - - -
29/05:00pm 14.9 WNW 12 19 1016.0 - 0.0 - - - - - - -
29/04:30pm 16.1 W 9 15 1015.7 - 0.0 - - - - - - -
29/04:00pm 16.2 W 15 22 1014.9 - 0.0 - - - - - - -
29/03:30pm 16.2 W 13 27 1015.0 - 0.0 - - - - - - -
29/03:00pm 16.1 W 15 23 1014.8 - 0.0 - - - - - - -
29/02:30pm 15.6 WNW 15 23 1014.8 - 0.0 - - - - - - -
29/02:17pm 16.0 W 15 25 1014.8 - 0.0 - - - - - - -
29/02:00pm 16.6 W 13 23 1014.6 - 0.0 - - - - - - -
29/01:30pm 16.1 WNW 15 23 1014.5 - 0.0 - - - - - - -
29/01:00pm 16.3 W 16 24 1014.6 - 0.0 - - - - - - -
29/12:50pm 16.9 WNW 15 25 1014.5 - 0.0 - - - - - - -
29/12:30pm 16.5 W 12 19 1014.7 - 0.0 - - - - - - -
29/12:00pm 16.1 W 13 24 1014.4 - 0.0 - - - - - - -
29/11:30am 16.4 W 13 20 1014.5 - 0.0 - - - - - - -
29/11:07am 16.1 W 15 25 1014.3 - 0.0 - - - - - - -
29/11:00am 16.6 W 13 19 1014.4 - 0.0 - - - - - - -
29/10:30am 16.5 W 15 23 1013.9 - 0.0 - - - - - - -
29/10:00am 16.6 W 12 17 1013.9 - 0.0 - - - - - - -
29/09:30am 15.9 W 10 18 1014.1 - 0.0 - - - - - - -
29/09:00am 15.3 W 12 21 1013.8 - 2.2 - - - - - - -
29/08:30am 14.7 WNW 9 12 1013.3 - 2.2 - - - - - - -
29/08:00am 13.5 NW 8 11 1013.2 - 2.2 - - - - - - -
29/07:30am 13.3 NW 9 12 1013.0 - 2.2 - - - - - - -
29/07:00am 12.8 W 6 11 1012.8 - 2.2 - - - - - - -
29/06:30am 12.4 WNW 10 14 1012.5 - 2.0 - - - - - - -
29/06:00am 12.4 WNW 8 11 1012.2 - 1.2 Rain - - - - - -
29/05:30am 12.4 WNW 11 17 1011.6 - 1.0 - - - - - - -
29/05:00am 12.6 NW 12 16 1011.2 - 1.0 - - - - - - -
29/04:30am 12.3 NW 11 18 1011.2 - 1.0 - - - - - - -
29/04:00am 12.5 NW 10 14 1011.3 - 1.0 - - - - - - -
29/03:30am 12.8 NW 12 20 1011.3 - 1.0 - - - - - - -
29/03:00am 12.9 NW 12 17 1011.3 - 1.0 - - - - - - -
29/02:30am 12.7 WNW 9 18 1011.7 - 1.0 - - - - - - -
29/02:00am 12.6 NW 12 18 1011.8 - 1.0 - - - - - - -
29/01:30am 12.5 NW 11 16 1012.0 - 0.8 - - - - - - -
29/01:00am 12.9 NW 13 17 1012.2 - 0.6 - - - - - - -
29/12:30am 12.9 NW 13 19 1012.2 - 0.4 - - - - - - -
29/12:00am 12.9 NW 11 16 1012.2 - 0.4 - - - - - - -
 
Date/Time
WST
Temp

°C
Wind Pressure Rain
since 9am
mm
Weather Cloud Vis
km
Sea
Height
m
Swell
Dir
 
Speed
knots
Gust
knots
hPa Trend Height
m
Period
s
Dir
28/11:30pm 13.0 NW 12 16 1012.3 - 0.4 - - - - - - -
28/11:00pm 13.0 NW 11 15 1012.7 - 0.4 - - - - - - -
28/10:30pm 13.1 NW 10 13 1012.8 - 0.4 - - - - - - -
28/10:00pm 13.1 NW 11 15 1013.0 - 0.4 - - - - - - -
28/09:30pm 13.2 NW 11 16 1013.3 - 0.4 - - - - - - -
28/09:00pm 13.4 NW 11 16 1013.2 - 0.4 Recent precip. - - - - - -
28/08:30pm 13.5 NW 9 13 1013.5 - 0.4 - - - - - - -
28/08:00pm 14.0 NW 7 11 1013.5 - 0.2 - - - - - - -
28/07:30pm 14.3 WNW 7 12 1013.4 - 0.2 - - - - - - -
28/07:00pm 14.0 WNW 8 10 1013.1 - 0.2 - - - - - - -

Other Formats:

Comma delimited format used in spreadsheet applications
http://www.bom.gov.au/fwo/IDW60701/IDW60701.95647.axf

JavaScript Object Notation format (JSON) in row-major order
http://www.bom.gov.au/fwo/IDW60701/IDW60701.95647.json